Time;durP1;ratioP1;P1;durP2;ratioP2;P2;SDS_P1;SDS_P2;PMS_P1;PMS_P2;Temp;Humidity;BMP_temperature;BMP_pressure;BME280_temperature;BME280_humidity;BME280_pressure;Samples;Min_cycle;Max_cycle;Signal;HPM_P1;HPM_P2
2022/11/26 00:00:57;;;;;;;;;;;21.50;40.80;;;;;;484245;246;1572;-44
2022/11/26 00:02:58;;;;;;;;;;;21.50;40.80;;;;;;484606;246;1188;-44
2022/11/26 00:04:59;;;;;;;;;;;21.40;40.80;;;;;;484632;246;2148;-44
2022/11/26 00:07:01;;;;;;;;;;;21.40;40.80;;;;;;484181;246;1332;-44
2022/11/26 00:09:02;;;;;;;;;;;21.40;40.90;;;;;;484175;242;1338;-44
2022/11/26 00:11:04;;;;;;;;;;;21.50;40.80;;;;;;484292;246;1316;-44
2022/11/26 00:13:05;;;;;;;;;;;21.50;40.80;;;;;;484260;246;1216;-44
2022/11/26 00:15:06;;;;;;;;;;;21.40;40.80;;;;;;484395;246;1352;-44
2022/11/26 00:17:07;;;;;;;;;;;21.50;40.80;;;;;;484163;246;1703;-44
2022/11/26 00:19:09;;;;;;;;;;;21.40;40.80;;;;;;484168;246;1284;-44
2022/11/26 00:21:10;;;;;;;;;;;21.50;40.80;;;;;;484461;246;1253;-44
2022/11/26 00:23:11;;;;;;;;;;;21.40;40.80;;;;;;484171;246;1681;-44
2022/11/26 00:25:13;;;;;;;;;;;21.40;40.80;;;;;;484157;246;2156;-44
2022/11/26 00:27:14;;;;;;;;;;;21.40;40.80;;;;;;484613;246;1207;-44
2022/11/26 00:29:15;;;;;;;;;;;21.50;40.80;;;;;;484189;246;1390;-44
2022/11/26 00:31:17;;;;;;;;;;;21.40;40.80;;;;;;484189;246;1231;-44
2022/11/26 00:33:18;;;;;;;;;;;21.40;40.80;;;;;;484139;246;1296;-44
2022/11/26 00:35:19;;;;;;;;;;;21.40;40.90;;;;;;484238;246;1606;-44
2022/11/26 00:37:20;;;;;;;;;;;21.40;40.80;;;;;;484132;246;1312;-44
2022/11/26 00:39:22;;;;;;;;;;;21.40;40.80;;;;;;484171;246;1282;-44
2022/11/26 00:41:23;;;;;;;;;;;21.40;40.90;;;;;;484162;246;1565;-44
2022/11/26 00:43:24;;;;;;;;;;;21.40;40.90;;;;;;484565;246;1631;-44
2022/11/26 00:45:26;;;;;;;;;;;21.40;40.90;;;;;;484332;246;2207;-44
2022/11/26 00:47:27;;;;;;;;;;;21.40;40.90;;;;;;484311;246;1286;-44
2022/11/26 00:49:28;;;;;;;;;;;21.40;40.90;;;;;;484153;246;1260;-44
2022/11/26 00:51:30;;;;;;;;;;;21.40;40.90;;;;;;484316;246;1279;-44
2022/11/26 00:53:31;;;;;;;;;;;21.40;40.90;;;;;;484183;246;1313;-44
2022/11/26 00:55:32;;;;;;;;;;;21.40;40.90;;;;;;484453;246;1220;-44
2022/11/26 00:57:34;;;;;;;;;;;21.40;40.90;;;;;;484440;246;1463;-44
2022/11/26 00:59:35;;;;;;;;;;;21.40;40.90;;;;;;484500;246;1267;-44
2022/11/26 01:01:36;;;;;;;;;;;21.40;40.90;;;;;;484633;246;1223;-44
2022/11/26 01:03:41;;;;;;;;;;;21.40;40.90;;;;;;484189;246;1206;-44
2022/11/26 01:05:39;;;;;;;;;;;21.40;40.90;;;;;;483870;246;2188;-44
2022/11/26 01:07:40;;;;;;;;;;;21.40;40.90;;;;;;484441;246;1313;-44
2022/11/26 01:09:42;;;;;;;;;;;21.40;40.90;;;;;;484378;246;1266;-44
2022/11/26 01:11:43;;;;;;;;;;;21.40;41.00;;;;;;484602;246;1283;-44
2022/11/26 01:13:44;;;;;;;;;;;21.40;40.90;;;;;;484522;246;1218;-44
2022/11/26 01:15:46;;;;;;;;;;;21.40;40.90;;;;;;484158;246;1339;-44
2022/11/26 01:17:47;;;;;;;;;;;21.40;40.90;;;;;;484412;246;1367;-44
2022/11/26 01:19:48;;;;;;;;;;;21.30;40.90;;;;;;484203;246;1323;-44
2022/11/26 01:21:50;;;;;;;;;;;21.40;40.90;;;;;;484560;246;1239;-44
2022/11/26 01:23:51;;;;;;;;;;;21.30;41.00;;;;;;484240;246;1260;-45
2022/11/26 01:25:52;;;;;;;;;;;21.30;41.00;;;;;;484265;246;2199;-44
2022/11/26 01:27:53;;;;;;;;;;;21.30;41.00;;;;;;484598;246;1645;-44
2022/11/26 01:29:55;;;;;;;;;;;21.30;41.00;;;;;;484528;246;1296;-44
2022/11/26 01:31:56;;;;;;;;;;;21.30;41.00;;;;;;484143;246;1383;-44
2022/11/26 01:33:58;;;;;;;;;;;21.30;41.00;;;;;;484171;246;1384;-44
2022/11/26 01:35:59;;;;;;;;;;;21.40;41.00;;;;;;484246;246;1258;-44
2022/11/26 01:38:00;;;;;;;;;;;21.30;40.90;;;;;;484425;246;1372;-44
2022/11/26 01:40:02;;;;;;;;;;;21.30;41.00;;;;;;484233;246;1301;-44
2022/11/26 01:42:03;;;;;;;;;;;21.30;41.10;;;;;;484186;246;1400;-44
2022/11/26 01:44:04;;;;;;;;;;;21.30;41.00;;;;;;484571;246;1276;-44
2022/11/26 01:46:06;;;;;;;;;;;21.30;40.90;;;;;;484272;246;2204;-44
2022/11/26 01:48:07;;;;;;;;;;;21.30;41.00;;;;;;484130;246;1329;-44
2022/11/26 01:50:08;;;;;;;;;;;21.30;41.00;;;;;;484528;246;1260;-44
2022/11/26 01:52:10;;;;;;;;;;;21.30;41.00;;;;;;484580;246;1272;-45
2022/11/26 01:54:11;;;;;;;;;;;21.30;41.00;;;;;;484140;246;1408;-44
2022/11/26 01:56:12;;;;;;;;;;;21.30;41.00;;;;;;484096;246;1345;-44
2022/11/26 01:58:14;;;;;;;;;;;21.30;41.00;;;;;;484373;246;1202;-44
2022/11/26 02:00:15;;;;;;;;;;;21.30;41.00;;;;;;484440;246;1545;-44
2022/11/26 02:02:16;;;;;;;;;;;21.30;41.00;;;;;;484176;246;1547;-44
2022/11/26 02:04:18;;;;;;;;;;;21.30;41.00;;;;;;484137;246;1294;-45
2022/11/26 02:06:19;;;;;;;;;;;21.40;41.00;;;;;;484599;246;2195;-44
2022/11/26 02:08:20;;;;;;;;;;;21.40;40.90;;;;;;484152;246;1352;-44
2022/11/26 02:10:22;;;;;;;;;;;21.30;40.90;;;;;;484625;246;1276;-45
2022/11/26 02:12:23;;;;;;;;;;;21.30;41.00;;;;;;484454;246;1335;-44
2022/11/26 02:14:25;;;;;;;;;;;21.30;40.90;;;;;;484120;246;1294;-44
2022/11/26 02:16:26;;;;;;;;;;;21.30;41.00;;;;;;484181;246;1227;-44
2022/11/26 02:18:27;;;;;;;;;;;21.30;41.10;;;;;;484135;246;1573;-44
2022/11/26 02:20:29;;;;;;;;;;;21.30;41.10;;;;;;484327;246;1435;-45
2022/11/26 02:22:30;;;;;;;;;;;21.30;41.00;;;;;;484248;246;1285;-44
2022/11/26 02:24:31;;;;;;;;;;;21.30;41.00;;;;;;484212;246;1327;-45
2022/11/26 02:26:33;;;;;;;;;;;21.30;41.10;;;;;;484592;246;2199;-44
2022/11/26 02:28:34;;;;;;;;;;;21.30;41.10;;;;;;484473;246;1581;-44
2022/11/26 02:30:35;;;;;;;;;;;21.30;41.10;;;;;;484269;246;1475;-45
2022/11/26 02:32:37;;;;;;;;;;;21.30;41.10;;;;;;484104;246;1332;-44
2022/11/26 02:34:38;;;;;;;;;;;21.30;41.00;;;;;;484167;246;1323;-44
2022/11/26 02:36:40;;;;;;;;;;;21.30;41.10;;;;;;484553;246;1755;-44
2022/11/26 02:38:41;;;;;;;;;;;21.30;41.00;;;;;;484415;246;1264;-44
2022/11/26 02:40:42;;;;;;;;;;;21.30;41.00;;;;;;484212;246;1252;-44
2022/11/26 02:42:44;;;;;;;;;;;21.30;40.90;;;;;;484138;246;1289;-44
2022/11/26 02:44:45;;;;;;;;;;;21.30;41.00;;;;;;484537;246;1582;-44
2022/11/26 02:46:46;;;;;;;;;;;21.30;41.00;;;;;;484227;246;2198;-44
2022/11/26 02:48:48;;;;;;;;;;;21.30;41.00;;;;;;484333;246;1858;-44
2022/11/26 02:50:49;;;;;;;;;;;21.30;41.10;;;;;;484266;246;1401;-44
2022/11/26 02:52:51;;;;;;;;;;;21.30;41.10;;;;;;484384;246;1287;-44
2022/11/26 02:54:52;;;;;;;;;;;21.30;41.10;;;;;;484120;246;1534;-44
2022/11/26 02:56:53;;;;;;;;;;;21.30;41.00;;;;;;484495;246;1268;-44
2022/11/26 02:58:55;;;;;;;;;;;21.30;41.10;;;;;;484091;246;1362;-45
2022/11/26 03:00:56;;;;;;;;;;;21.30;41.10;;;;;;484279;246;1370;-44
2022/11/26 03:02:58;;;;;;;;;;;21.20;41.10;;;;;;484320;246;1284;-44
2022/11/26 03:04:59;;;;;;;;;;;21.30;41.20;;;;;;484512;246;2066;-44
2022/11/26 03:07:00;;;;;;;;;;;21.30;41.10;;;;;;484482;246;2212;-44
2022/11/26 03:09:01;;;;;;;;;;;21.30;41.10;;;;;;484437;246;1251;-44
2022/11/26 03:11:03;;;;;;;;;;;21.30;41.10;;;;;;484563;246;1310;-44
2022/11/26 03:13:04;;;;;;;;;;;21.30;41.10;;;;;;484264;246;1279;-44
2022/11/26 03:15:06;;;;;;;;;;;21.30;41.10;;;;;;484312;246;1257;-44
2022/11/26 03:17:07;;;;;;;;;;;21.40;40.90;;;;;;484179;246;1254;-44
2022/11/26 03:19:08;;;;;;;;;;;21.60;40.50;;;;;;484470;246;1220;-44
2022/11/26 03:21:10;;;;;;;;;;;21.80;40.20;;;;;;484538;246;1621;-45
2022/11/26 03:23:11;;;;;;;;;;;21.90;39.90;;;;;;484580;246;1225;-45
2022/11/26 03:25:12;;;;;;;;;;;22.00;39.60;;;;;;484170;246;1337;-45
2022/11/26 03:27:14;;;;;;;;;;;22.10;39.50;;;;;;484194;246;2199;-45
2022/11/26 03:29:15;;;;;;;;;;;22.20;39.30;;;;;;484088;246;1678;-45
2022/11/26 03:31:16;;;;;;;;;;;22.20;39.20;;;;;;484213;246;1292;-45
2022/11/26 03:33:18;;;;;;;;;;;22.20;39.20;;;;;;484575;246;1358;-44
2022/11/26 03:35:19;;;;;;;;;;;22.20;39.30;;;;;;484643;246;1759;-44
2022/11/26 03:37:20;;;;;;;;;;;22.10;39.60;;;;;;484181;246;1483;-44
2022/11/26 03:39:22;;;;;;;;;;;22.00;39.80;;;;;;484475;246;1207;-45
2022/11/26 03:41:23;;;;;;;;;;;21.90;40.00;;;;;;484653;246;1231;-44
2022/11/26 03:43:24;;;;;;;;;;;21.80;40.10;;;;;;484183;246;1268;-44
2022/11/26 03:45:26;;;;;;;;;;;21.70;40.30;;;;;;484460;246;2191;-44
2022/11/26 03:47:27;;;;;;;;;;;21.70;40.40;;;;;;484625;246;1196;-44
2022/11/26 03:49:28;;;;;;;;;;;21.60;40.50;;;;;;484272;246;1269;-44
2022/11/26 03:51:30;;;;;;;;;;;21.50;40.60;;;;;;484165;246;1203;-44
2022/11/26 03:53:31;;;;;;;;;;;21.50;40.70;;;;;;484243;246;1319;-44
2022/11/26 03:55:32;;;;;;;;;;;21.50;40.70;;;;;;484201;246;1202;-44
2022/11/26 03:57:34;;;;;;;;;;;21.50;40.80;;;;;;484216;246;1222;-44
2022/11/26 03:59:35;;;;;;;;;;;21.40;40.70;;;;;;484633;246;1663;-44
2022/11/26 04:01:36;;;;;;;;;;;21.40;40.80;;;;;;484471;246;1231;-45
2022/11/26 04:03:37;;;;;;;;;;;21.40;40.80;;;;;;484118;246;1233;-44
2022/11/26 04:05:39;;;;;;;;;;;21.40;40.80;;;;;;484633;246;2252;-44
2022/11/26 04:07:40;;;;;;;;;;;21.40;40.90;;;;;;484529;246;1166;-44
2022/11/26 04:09:41;;;;;;;;;;;21.40;40.90;;;;;;484441;246;1205;-44
2022/11/26 04:11:43;;;;;;;;;;;21.40;40.90;;;;;;484662;246;1387;-44
2022/11/26 04:13:44;;;;;;;;;;;21.40;40.90;;;;;;484206;246;1232;-45
2022/11/26 04:15:45;;;;;;;;;;;21.40;40.90;;;;;;484337;246;1231;-44
2022/11/26 04:17:47;;;;;;;;;;;21.40;41.00;;;;;;484564;246;1762;-44
2022/11/26 04:19:48;;;;;;;;;;;21.40;41.10;;;;;;484516;246;1212;-44
2022/11/26 04:21:49;;;;;;;;;;;21.40;41.10;;;;;;484387;246;1307;-44
2022/11/26 04:23:51;;;;;;;;;;;21.40;41.00;;;;;;484319;246;1247;-44
2022/11/26 04:25:52;;;;;;;;;;;21.40;41.00;;;;;;484265;246;2188;-44
2022/11/26 04:27:53;;;;;;;;;;;21.30;41.00;;;;;;484193;246;1402;-44
2022/11/26 04:29:55;;;;;;;;;;;21.30;41.00;;;;;;484415;246;1409;-44
2022/11/26 04:31:56;;;;;;;;;;;21.30;41.00;;;;;;484213;246;1267;-45
2022/11/26 04:33:57;;;;;;;;;;;21.30;41.00;;;;;;484344;246;1246;-44
2022/11/26 04:35:59;;;;;;;;;;;21.30;41.00;;;;;;484424;246;1413;-44
2022/11/26 04:38:00;;;;;;;;;;;21.30;41.00;;;;;;484157;246;1846;-44
2022/11/26 04:40:02;;;;;;;;;;;21.30;41.00;;;;;;484192;246;1314;-44
2022/11/26 04:42:03;;;;;;;;;;;21.40;41.00;;;;;;484597;246;1250;-44
2022/11/26 04:44:04;;;;;;;;;;;21.40;41.00;;;;;;484342;246;1216;-44
2022/11/26 04:46:05;;;;;;;;;;;21.30;41.00;;;;;;484212;246;2165;-45
2022/11/26 04:48:07;;;;;;;;;;;21.30;41.00;;;;;;484520;246;1566;-44
2022/11/26 04:50:09;;;;;;;;;;;21.30;41.00;;;;;;484352;246;1131;-44
2022/11/26 04:52:09;;;;;;;;;;;21.30;41.10;;;;;;484376;246;1902;-44
2022/11/26 04:54:11;;;;;;;;;;;21.30;41.10;;;;;;484185;246;1428;-44
2022/11/26 04:56:12;;;;;;;;;;;21.30;41.10;;;;;;484178;246;1383;-44
2022/11/26 04:58:13;;;;;;;;;;;21.30;41.10;;;;;;484193;246;1559;-44
2022/11/26 05:00:15;;;;;;;;;;;21.30;41.10;;;;;;484163;246;1268;-44
2022/11/26 05:02:16;;;;;;;;;;;21.30;41.10;;;;;;484242;246;1247;-44
2022/11/26 05:04:17;;;;;;;;;;;21.30;41.10;;;;;;484348;246;1239;-44
2022/11/26 05:06:19;;;;;;;;;;;21.30;41.00;;;;;;484574;246;2187;-44
2022/11/26 05:08:20;;;;;;;;;;;21.30;41.10;;;;;;484620;246;1248;-44
2022/11/26 05:10:21;;;;;;;;;;;21.30;41.10;;;;;;484205;246;1238;-44
2022/11/26 05:12:23;;;;;;;;;;;21.30;41.20;;;;;;484547;246;1710;-44
2022/11/26 05:14:24;;;;;;;;;;;21.30;41.20;;;;;;484407;246;1311;-44
2022/11/26 05:16:25;;;;;;;;;;;21.30;41.20;;;;;;484207;246;1215;-45
2022/11/26 05:18:26;;;;;;;;;;;21.30;41.20;;;;;;484223;246;1212;-44
2022/11/26 05:20:28;;;;;;;;;;;21.30;41.20;;;;;;484202;246;1363;-45
2022/11/26 05:22:29;;;;;;;;;;;21.30;41.20;;;;;;484652;246;1243;-45
2022/11/26 05:24:30;;;;;;;;;;;21.30;41.20;;;;;;484208;246;1322;-44
2022/11/26 05:26:32;;;;;;;;;;;21.30;41.10;;;;;;484289;246;2148;-44
2022/11/26 05:28:33;;;;;;;;;;;21.30;41.10;;;;;;484584;246;1529;-44
2022/11/26 05:30:34;;;;;;;;;;;21.30;41.00;;;;;;484500;246;1249;-44
2022/11/26 05:32:36;;;;;;;;;;;21.30;41.10;;;;;;484164;246;1323;-44
2022/11/26 05:34:37;;;;;;;;;;;21.30;41.10;;;;;;484185;246;1174;-44
2022/11/26 05:36:38;;;;;;;;;;;21.30;41.10;;;;;;484367;246;1276;-44
2022/11/26 05:38:40;;;;;;;;;;;21.30;41.10;;;;;;484661;246;1172;-44
2022/11/26 05:40:41;;;;;;;;;;;21.30;41.10;;;;;;484285;246;1230;-44
2022/11/26 05:42:43;;;;;;;;;;;21.30;41.10;;;;;;484298;246;1246;-44
2022/11/26 05:44:44;;;;;;;;;;;21.30;41.20;;;;;;484136;246;1313;-44
2022/11/26 05:46:45;;;;;;;;;;;21.20;41.20;;;;;;484186;246;2209;-44
2022/11/26 05:48:46;;;;;;;;;;;21.20;41.30;;;;;;484178;246;1216;-44
2022/11/26 05:50:48;;;;;;;;;;;21.20;41.30;;;;;;484191;246;1259;-44
2022/11/26 05:52:50;;;;;;;;;;;21.20;41.30;;;;;;484618;246;1257;-44
2022/11/26 05:54:51;;;;;;;;;;;21.30;41.30;;;;;;484598;246;1392;-44
2022/11/26 05:56:52;;;;;;;;;;;21.30;41.20;;;;;;484271;246;1224;-44
2022/11/26 05:58:54;;;;;;;;;;;21.30;41.20;;;;;;484376;246;1641;-44
2022/11/26 06:00:55;;;;;;;;;;;21.30;41.20;;;;;;484656;246;1275;-45
2022/11/26 06:02:56;;;;;;;;;;;21.20;41.30;;;;;;484192;246;1342;-44
2022/11/26 06:04:57;;;;;;;;;;;21.20;41.30;;;;;;484164;246;1223;-44
2022/11/26 06:06:59;;;;;;;;;;;21.20;41.30;;;;;;484567;246;2147;-44
2022/11/26 06:09:00;;;;;;;;;;;21.20;41.30;;;;;;484177;246;1285;-45
2022/11/26 06:11:01;;;;;;;;;;;21.20;41.30;;;;;;484523;246;1240;-44
2022/11/26 06:13:03;;;;;;;;;;;21.20;41.30;;;;;;484646;246;1292;-45
2022/11/26 06:15:04;;;;;;;;;;;21.20;41.30;;;;;;484265;246;1266;-44
2022/11/26 06:17:05;;;;;;;;;;;21.20;41.30;;;;;;484229;246;1189;-45
2022/11/26 06:19:07;;;;;;;;;;;21.20;41.30;;;;;;484663;246;1288;-45
2022/11/26 06:21:08;;;;;;;;;;;21.30;41.30;;;;;;484432;246;1214;-44
2022/11/26 06:23:09;;;;;;;;;;;21.30;41.30;;;;;;484675;246;1259;-44
2022/11/26 06:25:11;;;;;;;;;;;21.30;41.30;;;;;;484632;246;1182;-44
2022/11/26 06:27:12;;;;;;;;;;;21.20;41.20;;;;;;484229;242;2180;-44
2022/11/26 06:29:14;;;;;;;;;;;21.30;41.30;;;;;;484602;246;1529;-44
2022/11/26 06:31:15;;;;;;;;;;;21.30;41.30;;;;;;484580;246;1290;-45
2022/11/26 06:33:16;;;;;;;;;;;21.20;41.30;;;;;;484140;246;1679;-44
2022/11/26 06:35:18;;;;;;;;;;;21.20;41.30;;;;;;484122;246;1243;-44
2022/11/26 06:37:19;;;;;;;;;;;21.20;41.20;;;;;;484269;246;1601;-44
2022/11/26 06:39:20;;;;;;;;;;;21.30;41.30;;;;;;484142;246;1642;-44
2022/11/26 06:41:22;;;;;;;;;;;21.30;41.20;;;;;;484105;246;1370;-44
2022/11/26 06:43:23;;;;;;;;;;;21.20;41.30;;;;;;484100;246;1386;-44
2022/11/26 06:45:24;;;;;;;;;;;21.20;41.30;;;;;;484094;246;1340;-44
2022/11/26 06:47:26;;;;;;;;;;;21.20;41.30;;;;;;484114;246;2192;-44
2022/11/26 06:49:27;;;;;;;;;;;21.20;41.30;;;;;;484249;246;1263;-44
2022/11/26 06:51:28;;;;;;;;;;;21.20;41.30;;;;;;484111;246;1296;-44
2022/11/26 06:53:30;;;;;;;;;;;21.20;41.30;;;;;;484135;246;1286;-44
2022/11/26 06:55:31;;;;;;;;;;;21.20;41.30;;;;;;484151;246;1267;-44
2022/11/26 06:57:32;;;;;;;;;;;21.20;41.30;;;;;;484155;246;1211;-44
2022/11/26 06:59:34;;;;;;;;;;;21.20;41.30;;;;;;484170;246;1287;-44
2022/11/26 07:01:35;;;;;;;;;;;21.20;41.30;;;;;;484619;246;1216;-44
2022/11/26 07:03:36;;;;;;;;;;;21.20;41.30;;;;;;484432;246;1285;-44
2022/11/26 07:05:37;;;;;;;;;;;21.20;41.40;;;;;;484181;246;1257;-44
2022/11/26 07:07:39;;;;;;;;;;;21.20;41.30;;;;;;484467;246;2187;-44
2022/11/26 07:09:40;;;;;;;;;;;21.20;41.30;;;;;;484079;246;1364;-44
2022/11/26 07:11:42;;;;;;;;;;;21.20;41.30;;;;;;484420;246;1251;-44
2022/11/26 07:13:43;;;;;;;;;;;21.20;41.20;;;;;;484201;246;1189;-44
2022/11/26 07:15:44;;;;;;;;;;;21.20;41.30;;;;;;484397;246;1358;-44
2022/11/26 07:17:45;;;;;;;;;;;21.20;41.30;;;;;;484163;246;1322;-44
2022/11/26 07:19:47;;;;;;;;;;;21.20;41.30;;;;;;484570;246;1289;-44
2022/11/26 07:21:48;;;;;;;;;;;21.20;41.40;;;;;;484353;246;1235;-44
2022/11/26 07:23:49;;;;;;;;;;;21.20;41.40;;;;;;484422;242;1327;-44
2022/11/26 07:25:51;;;;;;;;;;;21.20;41.40;;;;;;484169;246;1314;-44
2022/11/26 07:27:52;;;;;;;;;;;21.20;41.30;;;;;;484035;246;2184;-44
2022/11/26 07:29:53;;;;;;;;;;;21.20;41.40;;;;;;484178;246;1194;-44
2022/11/26 07:31:55;;;;;;;;;;;21.20;41.30;;;;;;484178;246;1265;-44
2022/11/26 07:33:56;;;;;;;;;;;21.20;41.40;;;;;;484513;246;1248;-44
2022/11/26 07:35:57;;;;;;;;;;;21.20;41.40;;;;;;484181;246;1346;-44
2022/11/26 07:37:59;;;;;;;;;;;21.20;41.30;;;;;;484574;246;1267;-44
2022/11/26 07:40:00;;;;;;;;;;;21.20;41.40;;;;;;484240;246;1285;-44
2022/11/26 07:42:01;;;;;;;;;;;21.20;41.40;;;;;;484182;246;1294;-44
2022/11/26 07:44:03;;;;;;;;;;;21.20;41.30;;;;;;484280;246;1352;-45
2022/11/26 07:46:04;;;;;;;;;;;21.20;41.30;;;;;;484101;246;1275;-44
2022/11/26 07:48:05;;;;;;;;;;;21.20;41.40;;;;;;484293;246;2155;-44
2022/11/26 07:50:07;;;;;;;;;;;21.20;41.30;;;;;;484112;246;1309;-45
2022/11/26 07:52:08;;;;;;;;;;;21.20;41.30;;;;;;484226;246;1241;-44
2022/11/26 07:54:09;;;;;;;;;;;21.20;41.40;;;;;;484170;246;1264;-45
2022/11/26 07:56:11;;;;;;;;;;;21.20;41.40;;;;;;484093;246;1240;-44
2022/11/26 07:58:12;;;;;;;;;;;21.20;41.40;;;;;;484178;246;1316;-44
2022/11/26 08:00:13;;;;;;;;;;;21.20;41.40;;;;;;484038;246;1738;-44
2022/11/26 08:02:15;;;;;;;;;;;21.20;41.40;;;;;;484126;246;1474;-44
2022/11/26 08:04:16;;;;;;;;;;;21.20;41.40;;;;;;484620;246;1232;-44
2022/11/26 08:06:17;;;;;;;;;;;21.20;41.30;;;;;;484638;246;1551;-44
2022/11/26 08:08:19;;;;;;;;;;;21.20;41.40;;;;;;484408;246;2153;-44
2022/11/26 08:10:20;;;;;;;;;;;21.20;41.40;;;;;;484527;246;1348;-44
2022/11/26 08:12:21;;;;;;;;;;;21.20;41.40;;;;;;484283;246;1540;-44
2022/11/26 08:14:23;;;;;;;;;;;21.20;41.40;;;;;;484418;246;1213;-44
2022/11/26 08:16:24;;;;;;;;;;;21.20;41.40;;;;;;484625;246;1374;-44
2022/11/26 08:18:25;;;;;;;;;;;21.20;41.40;;;;;;484462;246;1265;-44
2022/11/26 08:20:27;;;;;;;;;;;21.10;41.40;;;;;;484339;246;1340;-44
2022/11/26 08:22:28;;;;;;;;;;;21.20;41.40;;;;;;484157;246;1339;-44
2022/11/26 08:24:29;;;;;;;;;;;21.20;41.40;;;;;;484254;246;1558;-44
2022/11/26 08:26:30;;;;;;;;;;;21.20;41.40;;;;;;484593;246;1197;-44
2022/11/26 08:28:32;;;;;;;;;;;21.20;41.40;;;;;;484203;246;2164;-44
2022/11/26 08:30:33;;;;;;;;;;;21.20;41.40;;;;;;484583;246;1471;-44
2022/11/26 08:32:34;;;;;;;;;;;21.10;41.40;;;;;;484344;246;1405;-44
2022/11/26 08:34:36;;;;;;;;;;;21.20;41.40;;;;;;484067;246;1280;-44
2022/11/26 08:36:37;;;;;;;;;;;21.20;41.40;;;;;;484433;246;1368;-44
2022/11/26 08:38:38;;;;;;;;;;;21.10;41.40;;;;;;484120;246;1292;-45
2022/11/26 08:40:40;;;;;;;;;;;21.20;41.40;;;;;;484569;246;1232;-45
2022/11/26 08:42:41;;;;;;;;;;;21.20;41.40;;;;;;484295;246;1274;-44
2022/11/26 08:44:42;;;;;;;;;;;21.10;41.50;;;;;;484172;246;1362;-44
2022/11/26 08:46:44;;;;;;;;;;;21.10;41.40;;;;;;484611;246;1250;-45
2022/11/26 08:48:45;;;;;;;;;;;21.10;41.50;;;;;;484588;246;2152;-44
2022/11/26 08:50:46;;;;;;;;;;;21.20;41.50;;;;;;484354;246;1314;-44
2022/11/26 08:52:48;;;;;;;;;;;21.20;41.50;;;;;;484162;246;1348;-44
2022/11/26 08:54:49;;;;;;;;;;;21.20;41.50;;;;;;484369;246;1332;-44
2022/11/26 08:56:50;;;;;;;;;;;21.10;41.40;;;;;;484208;246;1661;-44
2022/11/26 08:58:52;;;;;;;;;;;21.10;41.50;;;;;;484151;246;1398;-44
2022/11/26 09:00:53;;;;;;;;;;;21.10;41.50;;;;;;484187;246;1239;-44
2022/11/26 09:02:55;;;;;;;;;;;21.10;41.40;;;;;;484176;246;1232;-44
2022/11/26 09:04:56;;;;;;;;;;;21.10;41.50;;;;;;484445;246;1621;-44
2022/11/26 09:06:57;;;;;;;;;;;21.10;41.50;;;;;;484185;246;1225;-44
2022/11/26 09:09:16;;;;;;;;;;;21.10;41.50;;;;;;484197;246;2192;-44
2022/11/26 09:11:15;;;;;;;;;;;21.10;41.50;;;;;;484469;246;1526;-44
2022/11/26 09:13:17;;;;;;;;;;;21.10;41.40;;;;;;484342;246;1215;-44
2022/11/26 09:15:18;;;;;;;;;;;21.10;41.50;;;;;;484439;246;1228;-44
2022/11/26 09:17:19;;;;;;;;;;;21.20;41.50;;;;;;484213;246;1882;-44
2022/11/26 09:19:21;;;;;;;;;;;21.10;41.40;;;;;;484082;246;1503;-44
2022/11/26 09:21:22;;;;;;;;;;;21.20;41.50;;;;;;484155;246;1689;-44
2022/11/26 09:23:23;;;;;;;;;;;21.10;41.50;;;;;;484421;246;1247;-44
2022/11/26 09:25:25;;;;;;;;;;;21.10;41.50;;;;;;484121;246;1220;-44
2022/11/26 09:27:26;;;;;;;;;;;21.10;41.60;;;;;;484306;246;2156;-44
2022/11/26 09:29:27;;;;;;;;;;;21.10;41.50;;;;;;484146;246;1314;-44
2022/11/26 09:31:29;;;;;;;;;;;21.10;41.50;;;;;;484314;246;1384;-44
2022/11/26 09:33:30;;;;;;;;;;;21.20;41.50;;;;;;484118;246;1277;-44
2022/11/26 09:35:31;;;;;;;;;;;21.20;41.40;;;;;;484287;246;1651;-44
2022/11/26 09:37:33;;;;;;;;;;;21.10;41.30;;;;;;484151;246;1253;-44
2022/11/26 09:39:34;;;;;;;;;;;21.20;41.40;;;;;;484154;246;1663;-44
2022/11/26 09:41:35;;;;;;;;;;;21.20;41.40;;;;;;484202;246;1213;-44
2022/11/26 09:43:36;;;;;;;;;;;21.20;41.40;;;;;;484172;246;1259;-44
2022/11/26 09:45:38;;;;;;;;;;;21.20;41.50;;;;;;484198;246;1328;-44
2022/11/26 09:47:39;;;;;;;;;;;21.10;41.50;;;;;;484544;246;2180;-44
2022/11/26 09:49:41;;;;;;;;;;;21.10;41.50;;;;;;484498;246;1375;-44
2022/11/26 09:51:42;;;;;;;;;;;21.10;41.50;;;;;;484468;246;1248;-44
2022/11/26 09:53:44;;;;;;;;;;;21.10;41.50;;;;;;484555;246;1360;-45
2022/11/26 09:55:45;;;;;;;;;;;21.10;41.50;;;;;;484449;246;1300;-44
2022/11/26 09:57:46;;;;;;;;;;;21.10;41.40;;;;;;484573;246;1353;-44
2022/11/26 09:59:48;;;;;;;;;;;21.20;41.50;;;;;;484172;246;1303;-44
2022/11/26 10:01:49;;;;;;;;;;;21.10;41.50;;;;;;484472;246;1621;-44
2022/11/26 10:03:50;;;;;;;;;;;21.10;41.50;;;;;;484102;246;1682;-44
2022/11/26 10:05:52;;;;;;;;;;;21.10;41.50;;;;;;484247;246;1273;-44
2022/11/26 10:07:53;;;;;;;;;;;21.10;41.50;;;;;;484439;246;2196;-44
2022/11/26 10:09:54;;;;;;;;;;;21.10;41.50;;;;;;484139;246;1691;-44
2022/11/26 10:11:56;;;;;;;;;;;21.10;41.50;;;;;;484045;246;1434;-44
2022/11/26 10:13:57;;;;;;;;;;;21.10;41.50;;;;;;484095;246;1666;-44
2022/11/26 10:15:58;;;;;;;;;;;21.10;41.40;;;;;;484015;246;1325;-45
2022/11/26 10:18:00;;;;;;;;;;;21.10;41.40;;;;;;484070;246;1646;-44
2022/11/26 10:20:01;;;;;;;;;;;21.10;41.50;;;;;;484102;246;1615;-44
2022/11/26 10:22:02;;;;;;;;;;;21.10;41.60;;;;;;483981;246;1289;-44
2022/11/26 10:24:04;;;;;;;;;;;21.10;41.60;;;;;;484222;246;1704;-44
2022/11/26 10:26:05;;;;;;;;;;;21.10;41.60;;;;;;484088;246;1334;-44
2022/11/26 10:28:06;;;;;;;;;;;21.10;41.60;;;;;;484306;246;2196;-45
2022/11/26 10:30:08;;;;;;;;;;;21.10;41.60;;;;;;484088;246;1327;-44
2022/11/26 10:32:09;;;;;;;;;;;21.10;41.60;;;;;;484137;243;1256;-44
2022/11/26 10:34:10;;;;;;;;;;;21.10;41.60;;;;;;484497;246;1206;-44
2022/11/26 10:36:12;;;;;;;;;;;21.10;41.60;;;;;;484143;246;1249;-44
2022/11/26 10:38:13;;;;;;;;;;;21.10;41.50;;;;;;484213;246;1220;-44
2022/11/26 10:40:14;;;;;;;;;;;21.10;41.50;;;;;;484196;246;1242;-44
2022/11/26 10:42:16;;;;;;;;;;;21.10;41.50;;;;;;484343;246;1216;-44
2022/11/26 10:44:17;;;;;;;;;;;21.10;41.60;;;;;;484229;246;1387;-44
2022/11/26 10:46:21;;;;;;;;;;;21.10;41.50;;;;;;484290;246;1249;-44
2022/11/26 10:48:22;;;;;;;;;;;21.10;41.60;;;;;;484605;246;2151;-44
2022/11/26 10:50:24;;;;;;;;;;;21.10;41.60;;;;;;484251;246;1239;-44
2022/11/26 10:52:25;;;;;;;;;;;21.10;41.60;;;;;;484687;246;1212;-44
2022/11/26 10:54:26;;;;;;;;;;;21.10;41.60;;;;;;484595;246;1322;-44
2022/11/26 10:56:28;;;;;;;;;;;21.10;41.50;;;;;;484234;246;1210;-44
2022/11/26 10:58:29;;;;;;;;;;;21.10;41.50;;;;;;484569;246;1216;-44
2022/11/26 11:00:31;;;;;;;;;;;21.10;41.50;;;;;;484218;246;1257;-44
2022/11/26 11:02:32;;;;;;;;;;;21.10;41.50;;;;;;484587;246;1309;-44
2022/11/26 11:04:33;;;;;;;;;;;21.10;41.60;;;;;;484628;246;1529;-44
2022/11/26 11:06:35;;;;;;;;;;;21.10;41.60;;;;;;484158;246;1392;-45
2022/11/26 11:08:36;;;;;;;;;;;21.00;41.60;;;;;;484145;246;2252;-44
2022/11/26 11:10:37;;;;;;;;;;;21.10;41.60;;;;;;484558;246;1381;-44
2022/11/26 11:12:39;;;;;;;;;;;21.10;41.60;;;;;;484309;246;1198;-44
2022/11/26 11:14:40;;;;;;;;;;;21.10;41.60;;;;;;484116;246;1385;-44
2022/11/26 11:16:41;;;;;;;;;;;21.10;41.60;;;;;;484564;246;1567;-44
2022/11/26 11:18:42;;;;;;;;;;;21.00;41.60;;;;;;484187;246;1306;-44
2022/11/26 11:20:44;;;;;;;;;;;21.00;41.60;;;;;;484482;246;1371;-44
2022/11/26 11:22:45;;;;;;;;;;;21.10;41.60;;;;;;484612;246;1414;-44
2022/11/26 11:24:47;;;;;;;;;;;21.30;41.30;;;;;;484153;246;1421;-45
2022/11/26 11:26:48;;;;;;;;;;;21.50;40.90;;;;;;484201;246;1315;-45
2022/11/26 11:28:49;;;;;;;;;;;21.60;40.60;;;;;;484608;246;2192;-45
2022/11/26 11:30:51;;;;;;;;;;;21.80;40.30;;;;;;484174;246;1391;-44
2022/11/26 11:32:52;;;;;;;;;;;21.90;40.10;;;;;;484425;246;1196;-44
2022/11/26 11:34:53;;;;;;;;;;;21.90;39.90;;;;;;484608;246;1340;-45
2022/11/26 11:36:55;;;;;;;;;;;22.00;39.70;;;;;;484475;246;1671;-44
2022/11/26 11:38:56;;;;;;;;;;;22.10;39.60;;;;;;484189;246;1342;-44
2022/11/26 11:40:57;;;;;;;;;;;22.20;39.50;;;;;;484205;246;1270;-45
2022/11/26 11:42:58;;;;;;;;;;;22.20;39.40;;;;;;484242;246;1468;-44
2022/11/26 11:45:00;;;;;;;;;;;22.30;39.30;;;;;;484253;246;1300;-44
2022/11/26 11:47:01;;;;;;;;;;;22.30;39.20;;;;;;484186;246;1691;-44
2022/11/26 11:49:02;;;;;;;;;;;22.30;39.10;;;;;;484400;246;2153;-44
2022/11/26 11:51:04;;;;;;;;;;;22.40;39.10;;;;;;484152;246;1414;-45
2022/11/26 11:53:05;;;;;;;;;;;22.40;39.10;;;;;;484160;246;1246;-44
2022/11/26 11:55:06;;;;;;;;;;;22.40;39.00;;;;;;484372;246;1538;-44
2022/11/26 11:57:08;;;;;;;;;;;22.50;39.00;;;;;;484627;246;1193;-45